sensor_id;sensor_type;location;lat;lon;timestamp;pressure;altitude;pressure_sealevel;temperature;humidity
48424;BME280;34232;42.502;26.014;2023-03-26T00:01:32;99297.81;;;15.68;86.10
48424;BME280;34232;42.502;26.014;2023-03-26T00:04:00;99305.78;;;15.68;85.63
48424;BME280;34232;42.502;26.014;2023-03-26T00:06:27;99305.13;;;15.66;85.79
48424;BME280;34232;42.502;26.014;2023-03-26T00:08:53;99298.09;;;15.73;85.55
48424;BME280;34232;42.502;26.014;2023-03-26T00:11:19;99294.47;;;15.74;86.21
48424;BME280;34232;42.502;26.014;2023-03-26T00:13:45;99292.16;;;15.71;86.47
48424;BME280;34232;42.502;26.014;2023-03-26T00:16:12;99297.38;;;15.79;86.80
48424;BME280;34232;42.502;26.014;2023-03-26T00:18:38;99299.38;;;15.77;85.85
48424;BME280;34232;42.502;26.014;2023-03-26T00:21:05;99288.75;;;15.77;85.65
48424;BME280;34232;42.502;26.014;2023-03-26T00:23:32;99291.31;;;15.70;85.27
48424;BME280;34232;42.502;26.014;2023-03-26T00:25:59;99296.28;;;15.73;85.39
48424;BME280;34232;42.502;26.014;2023-03-26T00:28:25;99292.00;;;15.42;84.59
48424;BME280;34232;42.502;26.014;2023-03-26T00:30:58;99281.41;;;15.42;85.43
48424;BME280;34232;42.502;26.014;2023-03-26T00:33:23;99268.53;;;15.30;86.02
48424;BME280;34232;42.502;26.014;2023-03-26T00:35:53;99271.41;;;15.21;86.85
48424;BME280;34232;42.502;26.014;2023-03-26T00:38:19;99266.78;;;15.15;86.91
48424;BME280;34232;42.502;26.014;2023-03-26T00:40:46;99265.31;;;15.12;87.26
48424;BME280;34232;42.502;26.014;2023-03-26T00:43:12;99270.28;;;15.15;87.61
48424;BME280;34232;42.502;26.014;2023-03-26T00:45:44;99266.97;;;15.13;86.33
48424;BME280;34232;42.502;26.014;2023-03-26T00:48:09;99272.91;;;14.92;87.52
48424;BME280;34232;42.502;26.014;2023-03-26T00:50:35;99279.19;;;14.91;86.62
48424;BME280;34232;42.502;26.014;2023-03-26T00:53:01;99279.72;;;14.87;86.43
48424;BME280;34232;42.502;26.014;2023-03-26T00:55:27;99270.78;;;14.80;83.92
48424;BME280;34232;42.502;26.014;2023-03-26T00:57:52;99274.44;;;14.79;83.68
48424;BME280;34232;42.502;26.014;2023-03-26T01:00:19;99268.00;;;14.73;84.40
48424;BME280;34232;42.502;26.014;2023-03-26T01:02:51;99274.16;;;14.65;83.07
48424;BME280;34232;42.502;26.014;2023-03-26T01:08:03;99270.25;;;14.53;81.20
48424;BME280;34232;42.502;26.014;2023-03-26T01:10:39;99270.50;;;14.66;80.53
48424;BME280;34232;42.502;26.014;2023-03-26T01:13:04;99269.56;;;14.59;80.20
48424;BME280;34232;42.502;26.014;2023-03-26T01:15:30;99259.50;;;14.47;77.20
48424;BME280;34232;42.502;26.014;2023-03-26T01:17:55;99257.66;;;14.55;76.24
48424;BME280;34232;42.502;26.014;2023-03-26T01:20:22;99267.88;;;14.66;77.04
48424;BME280;34232;42.502;26.014;2023-03-26T01:22:51;99260.56;;;14.77;75.84
48424;BME280;34232;42.502;26.014;2023-03-26T01:25:17;99258.03;;;14.83;74.22
48424;BME280;34232;42.502;26.014;2023-03-26T01:27:53;99267.94;;;14.89;72.79
48424;BME280;34232;42.502;26.014;2023-03-26T01:32:59;99271.25;;;14.91;74.38
48424;BME280;34232;42.502;26.014;2023-03-26T01:37:58;99277.97;;;14.63;74.93
48424;BME280;34232;42.502;26.014;2023-03-26T01:42:53;99271.56;;;14.57;75.21
48424;BME280;34232;42.502;26.014;2023-03-26T01:45:20;99278.84;;;14.55;74.21
48424;BME280;34232;42.502;26.014;2023-03-26T01:47:47;99271.91;;;14.54;74.32
48424;BME280;34232;42.502;26.014;2023-03-26T01:50:13;99273.88;;;14.52;74.12
48424;BME280;34232;42.502;26.014;2023-03-26T01:52:38;99276.38;;;14.54;73.55
48424;BME280;34232;42.502;26.014;2023-03-26T01:55:04;99273.53;;;14.55;74.14
48424;BME280;34232;42.502;26.014;2023-03-26T02:00:01;99280.00;;;14.61;73.05
48424;BME280;34232;42.502;26.014;2023-03-26T02:07:32;99280.56;;;14.79;72.79
48424;BME280;34232;42.502;26.014;2023-03-26T02:10:10;99276.78;;;14.74;71.03
48424;BME280;34232;42.502;26.014;2023-03-26T02:12:37;99280.72;;;14.78;72.35
48424;BME280;34232;42.502;26.014;2023-03-26T02:15:03;99275.09;;;14.81;71.97
48424;BME280;34232;42.502;26.014;2023-03-26T02:17:29;99279.06;;;14.85;72.24
48424;BME280;34232;42.502;26.014;2023-03-26T02:19:56;99280.03;;;14.92;72.67
48424;BME280;34232;42.502;26.014;2023-03-26T02:22:21;99276.16;;;15.02;73.47
48424;BME280;34232;42.502;26.014;2023-03-26T02:24:53;99269.72;;;14.97;71.17
48424;BME280;34232;42.502;26.014;2023-03-26T02:27:19;99271.72;;;14.95;71.04
48424;BME280;34232;42.502;26.014;2023-03-26T02:29:44;99278.72;;;14.88;71.38
48424;BME280;34232;42.502;26.014;2023-03-26T02:32:11;99277.22;;;14.93;70.25
48424;BME280;34232;42.502;26.014;2023-03-26T02:34:38;99268.22;;;14.94;69.13
48424;BME280;34232;42.502;26.014;2023-03-26T02:37:03;99270.38;;;14.99;69.21
48424;BME280;34232;42.502;26.014;2023-03-26T02:39:28;99270.38;;;14.99;69.37
48424;BME280;34232;42.502;26.014;2023-03-26T02:41:53;99270.72;;;14.96;68.43
48424;BME280;34232;42.502;26.014;2023-03-26T02:44:19;99281.31;;;14.96;68.77
48424;BME280;34232;42.502;26.014;2023-03-26T02:46:44;99282.63;;;15.00;68.64
48424;BME280;34232;42.502;26.014;2023-03-26T02:49:09;99292.06;;;15.02;69.04
48424;BME280;34232;42.502;26.014;2023-03-26T02:51:35;99304.16;;;15.05;69.02
48424;BME280;34232;42.502;26.014;2023-03-26T02:54:01;99314.56;;;15.07;69.18
48424;BME280;34232;42.502;26.014;2023-03-26T02:56:27;99348.72;;;15.01;69.63
48424;BME280;34232;42.502;26.014;2023-03-26T02:58:52;99374.94;;;14.88;68.98
48424;BME280;34232;42.502;26.014;2023-03-26T03:01:17;99363.53;;;14.80;70.13
48424;BME280;34232;42.502;26.014;2023-03-26T03:03:43;99353.34;;;14.60;71.08
48424;BME280;34232;42.502;26.014;2023-03-26T03:06:08;99372.25;;;14.41;75.36
48424;BME280;34232;42.502;26.014;2023-03-26T03:08:34;99385.47;;;14.25;80.16
48424;BME280;34232;42.502;26.014;2023-03-26T03:11:17;99338.13;;;13.97;82.37
48424;BME280;34232;42.502;26.014;2023-03-26T03:13:46;99305.41;;;13.90;83.85
48424;BME280;34232;42.502;26.014;2023-03-26T03:16:11;99334.50;;;13.82;84.74
48424;BME280;34232;42.502;26.014;2023-03-26T03:18:36;99359.28;;;13.81;85.16
48424;BME280;34232;42.502;26.014;2023-03-26T03:21:02;99373.16;;;13.67;88.12
48424;BME280;34232;42.502;26.014;2023-03-26T03:23:28;99384.56;;;13.68;87.47
48424;BME280;34232;42.502;26.014;2023-03-26T03:25:53;99382.59;;;13.70;87.83
48424;BME280;34232;42.502;26.014;2023-03-26T03:28:21;99393.50;;;13.66;88.33
48424;BME280;34232;42.502;26.014;2023-03-26T03:30:47;99388.06;;;13.76;88.40
48424;BME280;34232;42.502;26.014;2023-03-26T03:33:12;99385.44;;;13.84;87.83
48424;BME280;34232;42.502;26.014;2023-03-26T03:35:38;99371.88;;;13.87;87.05
48424;BME280;34232;42.502;26.014;2023-03-26T03:38:04;99369.72;;;13.83;86.53
48424;BME280;34232;42.502;26.014;2023-03-26T03:40:29;99360.94;;;13.82;84.00
48424;BME280;34232;42.502;26.014;2023-03-26T03:42:54;99362.28;;;13.86;82.89
48424;BME280;34232;42.502;26.014;2023-03-26T03:45:19;99357.31;;;13.83;82.73
48424;BME280;34232;42.502;26.014;2023-03-26T03:47:45;99357.00;;;13.86;82.21
48424;BME280;34232;42.502;26.014;2023-03-26T03:50:10;99357.97;;;13.85;83.14
48424;BME280;34232;42.502;26.014;2023-03-26T03:52:35;99361.97;;;13.89;84.05
48424;BME280;34232;42.502;26.014;2023-03-26T03:55:01;99357.00;;;13.94;83.23
48424;BME280;34232;42.502;26.014;2023-03-26T03:57:27;99360.81;;;13.92;82.27
48424;BME280;34232;42.502;26.014;2023-03-26T03:59:52;99369.56;;;13.84;81.83
48424;BME280;34232;42.502;26.014;2023-03-26T04:02:18;99379.47;;;13.74;82.01
48424;BME280;34232;42.502;26.014;2023-03-26T04:04:59;99385.75;;;13.73;81.67
48424;BME280;34232;42.502;26.014;2023-03-26T04:07:24;99396.81;;;13.69;81.61
48424;BME280;34232;42.502;26.014;2023-03-26T04:09:50;99395.00;;;13.61;78.69
48424;BME280;34232;42.502;26.014;2023-03-26T04:12:15;99394.31;;;13.67;78.12
48424;BME280;34232;42.502;26.014;2023-03-26T04:14:41;99389.03;;;13.67;77.21
48424;BME280;34232;42.502;26.014;2023-03-26T04:17:06;99384.75;;;13.74;79.80
48424;BME280;34232;42.502;26.014;2023-03-26T04:19:31;99376.16;;;13.72;76.56
48424;BME280;34232;42.502;26.014;2023-03-26T04:21:57;99368.41;;;13.79;74.57
48424;BME280;34232;42.502;26.014;2023-03-26T04:24:29;99363.09;;;13.71;73.34
48424;BME280;34232;42.502;26.014;2023-03-26T04:26:58;99370.19;;;13.70;74.85
48424;BME280;34232;42.502;26.014;2023-03-26T04:29:25;99365.91;;;13.69;73.92
48424;BME280;34232;42.502;26.014;2023-03-26T04:31:54;99361.28;;;13.63;72.67
48424;BME280;34232;42.502;26.014;2023-03-26T04:34:23;99352.69;;;13.61;72.46
48424;BME280;34232;42.502;26.014;2023-03-26T04:36:49;99351.84;;;13.60;71.58
48424;BME280;34232;42.502;26.014;2023-03-26T04:39:15;99365.22;;;13.59;71.56
48424;BME280;34232;42.502;26.014;2023-03-26T04:41:41;99372.50;;;13.57;71.59
48424;BME280;34232;42.502;26.014;2023-03-26T04:44:06;99378.28;;;13.60;72.82
48424;BME280;34232;42.502;26.014;2023-03-26T04:46:31;99371.19;;;13.69;72.71
48424;BME280;34232;42.502;26.014;2023-03-26T04:48:57;99369.53;;;13.68;71.62
48424;BME280;34232;42.502;26.014;2023-03-26T04:51:24;99368.53;;;13.69;70.93
48424;BME280;34232;42.502;26.014;2023-03-26T04:53:50;99375.50;;;13.62;72.20
48424;BME280;34232;42.502;26.014;2023-03-26T04:58:47;99372.22;;;13.76;72.83
48424;BME280;34232;42.502;26.014;2023-03-26T05:01:14;99389.38;;;13.80;71.19
48424;BME280;34232;42.502;26.014;2023-03-26T05:03:40;99386.94;;;13.79;69.18
48424;BME280;34232;42.502;26.014;2023-03-26T05:06:06;99387.41;;;13.82;69.37
48424;BME280;34232;42.502;26.014;2023-03-26T05:08:33;99397.34;;;13.88;69.87
48424;BME280;34232;42.502;26.014;2023-03-26T05:10:58;99407.59;;;13.91;69.21
48424;BME280;34232;42.502;26.014;2023-03-26T05:13:23;99413.22;;;13.96;66.77
48424;BME280;34232;42.502;26.014;2023-03-26T05:15:49;99411.94;;;14.09;68.12
48424;BME280;34232;42.502;26.014;2023-03-26T05:18:14;99399.03;;;14.22;66.97
48424;BME280;34232;42.502;26.014;2023-03-26T05:20:41;99402.97;;;14.18;66.76
48424;BME280;34232;42.502;26.014;2023-03-26T05:23:07;99408.78;;;14.21;65.73
48424;BME280;34232;42.502;26.014;2023-03-26T05:25:32;99403.16;;;14.24;67.33
48424;BME280;34232;42.502;26.014;2023-03-26T05:27:59;99410.94;;;14.26;65.55
48424;BME280;34232;42.502;26.014;2023-03-26T05:30:24;99412.59;;;14.27;66.54
48424;BME280;34232;42.502;26.014;2023-03-26T05:32:49;99414.06;;;14.38;66.04
48424;BME280;34232;42.502;26.014;2023-03-26T05:35:15;99416.56;;;14.39;65.21
48424;BME280;34232;42.502;26.014;2023-03-26T05:37:42;99414.59;;;14.41;65.07
48424;BME280;34232;42.502;26.014;2023-03-26T05:40:09;99407.94;;;14.37;65.09
48424;BME280;34232;42.502;26.014;2023-03-26T05:42:39;99414.06;;;14.38;64.86
48424;BME280;34232;42.502;26.014;2023-03-26T05:45:05;99421.19;;;14.29;64.75
48424;BME280;34232;42.502;26.014;2023-03-26T05:47:31;99425.34;;;14.23;64.85
48424;BME280;34232;42.502;26.014;2023-03-26T05:49:57;99433.41;;;14.14;63.87
48424;BME280;34232;42.502;26.014;2023-03-26T05:52:22;99438.41;;;14.09;62.96
48424;BME280;34232;42.502;26.014;2023-03-26T05:54:47;99446.03;;;14.12;63.11
48424;BME280;34232;42.502;26.014;2023-03-26T05:57:12;99446.66;;;14.06;62.92
48424;BME280;34232;42.502;26.014;2023-03-26T05:59:38;99455.91;;;14.01;61.20
48424;BME280;34232;42.502;26.014;2023-03-26T06:02:03;99469.16;;;14.10;61.78
48424;BME280;34232;42.502;26.014;2023-03-26T06:04:28;99465.22;;;14.22;62.15
48424;BME280;34232;42.502;26.014;2023-03-26T06:06:55;99461.41;;;14.32;61.26
48424;BME280;34232;42.502;26.014;2023-03-26T06:09:21;99472.03;;;14.41;61.00
48424;BME280;34232;42.502;26.014;2023-03-26T06:11:46;99472.88;;;14.41;59.71
48424;BME280;34232;42.502;26.014;2023-03-26T06:14:12;99477.13;;;14.34;59.49
48424;BME280;34232;42.502;26.014;2023-03-26T06:16:37;99464.88;;;14.33;61.04
48424;BME280;34232;42.502;26.014;2023-03-26T06:19:02;99485.44;;;14.47;61.37
48424;BME280;34232;42.502;26.014;2023-03-26T06:21:27;99476.66;;;14.63;60.37
48424;BME280;34232;42.502;26.014;2023-03-26T06:23:53;99477.34;;;14.73;59.42
48424;BME280;34232;42.502;26.014;2023-03-26T06:26:18;99468.38;;;14.90;59.62
48424;BME280;34232;42.502;26.014;2023-03-26T06:28:44;99471.16;;;15.05;59.40
48424;BME280;34232;42.502;26.014;2023-03-26T06:31:10;99471.22;;;15.28;59.22
48424;BME280;34232;42.502;26.014;2023-03-26T06:33:35;99472.00;;;15.45;56.68
48424;BME280;34232;42.502;26.014;2023-03-26T06:36:04;99472.44;;;15.64;55.93
48424;BME280;34232;42.502;26.014;2023-03-26T06:38:29;99467.91;;;15.81;57.11
48424;BME280;34232;42.502;26.014;2023-03-26T06:41:00;99470.34;;;15.91;55.89
48424;BME280;34232;42.502;26.014;2023-03-26T06:43:25;99473.50;;;15.86;54.64
48424;BME280;34232;42.502;26.014;2023-03-26T06:45:51;99473.78;;;15.91;55.85
48424;BME280;34232;42.502;26.014;2023-03-26T06:48:16;99478.72;;;16.02;53.24
48424;BME280;34232;42.502;26.014;2023-03-26T06:50:42;99476.91;;;16.03;54.70
48424;BME280;34232;42.502;26.014;2023-03-26T06:53:07;99477.03;;;16.32;55.09
48424;BME280;34232;42.502;26.014;2023-03-26T06:55:32;99475.72;;;16.51;54.23
48424;BME280;34232;42.502;26.014;2023-03-26T06:57:58;99478.94;;;16.69;55.72
48424;BME280;34232;42.502;26.014;2023-03-26T07:00:23;99475.19;;;16.78;53.08
48424;BME280;34232;42.502;26.014;2023-03-26T07:02:49;99486.66;;;16.94;52.83
48424;BME280;34232;42.502;26.014;2023-03-26T07:05:14;99473.84;;;17.12;52.35
48424;BME280;34232;42.502;26.014;2023-03-26T07:07:39;99470.47;;;17.18;49.56
48424;BME280;34232;42.502;26.014;2023-03-26T07:10:05;99477.06;;;17.22;50.08
48424;BME280;34232;42.502;26.014;2023-03-26T07:12:31;99491.66;;;17.26;51.86
48424;BME280;34232;42.502;26.014;2023-03-26T07:14:56;99486.25;;;17.34;50.19
48424;BME280;34232;42.502;26.014;2023-03-26T07:17:21;99490.16;;;17.38;49.08
48424;BME280;34232;42.502;26.014;2023-03-26T07:19:47;99498.25;;;17.30;48.74
48424;BME280;34232;42.502;26.014;2023-03-26T07:22:19;99493.31;;;17.27;48.95
48424;BME280;34232;42.502;26.014;2023-03-26T07:24:45;99496.72;;;17.36;47.70
48424;BME280;34232;42.502;26.014;2023-03-26T07:29:44;99506.34;;;17.52;48.20
48424;BME280;34232;42.502;26.014;2023-03-26T07:34:47;99503.56;;;17.60;47.42
48424;BME280;34232;42.502;26.014;2023-03-26T07:42:33;99510.50;;;18.05;46.37
48424;BME280;34232;42.502;26.014;2023-03-26T07:47:45;99521.56;;;18.23;44.25
48424;BME280;34232;42.502;26.014;2023-03-26T07:50:17;99520.00;;;18.29;45.96
48424;BME280;34232;42.502;26.014;2023-03-26T07:52:43;99528.56;;;18.45;45.79
48424;BME280;34232;42.502;26.014;2023-03-26T07:55:15;99524.38;;;18.58;43.15
48424;BME280;34232;42.502;26.014;2023-03-26T08:00:21;99525.22;;;18.79;42.20
48424;BME280;34232;42.502;26.014;2023-03-26T08:05:33;99530.97;;;19.04;41.40
48424;BME280;34232;42.502;26.014;2023-03-26T08:15:48;99534.59;;;19.52;41.61
48424;BME280;34232;42.502;26.014;2023-03-26T08:20:49;99523.91;;;19.52;38.36
48424;BME280;34232;42.502;26.014;2023-03-26T08:23:20;99523.44;;;19.42;37.41
48424;BME280;34232;42.502;26.014;2023-03-26T08:25:52;99521.59;;;19.43;38.82
48424;BME280;34232;42.502;26.014;2023-03-26T08:28:28;99514.41;;;19.43;39.09
48424;BME280;34232;42.502;26.014;2023-03-26T08:30:56;99511.88;;;19.35;37.63
48424;BME280;34232;42.502;26.014;2023-03-26T08:33:22;99510.63;;;19.31;37.08
48424;BME280;34232;42.502;26.014;2023-03-26T08:35:49;99516.00;;;19.38;36.92
48424;BME280;34232;42.502;26.014;2023-03-26T08:38:16;99507.75;;;19.61;36.28
48424;BME280;34232;42.502;26.014;2023-03-26T09:09:45;99482.56;;;20.90;32.31
48424;BME280;34232;42.502;26.014;2023-03-26T09:48:47;99502.59;;;21.72;30.02
48424;BME280;34232;42.502;26.014;2023-03-26T10:01:34;99494.03;;;21.94;29.82
48424;BME280;34232;42.502;26.014;2023-03-26T10:12:41;99488.59;;;22.14;28.11
48424;BME280;34232;42.502;26.014;2023-03-26T10:20:26;99480.03;;;22.37;28.47
48424;BME280;34232;42.502;26.014;2023-03-26T10:26:07;99477.34;;;22.37;27.18
48424;BME280;34232;42.502;26.014;2023-03-26T10:36:46;99463.50;;;22.40;28.54
48424;BME280;34232;42.502;26.014;2023-03-26T10:52:15;99451.06;;;22.71;25.99
48424;BME280;34232;42.502;26.014;2023-03-26T10:54:50;99446.69;;;22.51;26.30
48424;BME280;34232;42.502;26.014;2023-03-26T10:57:25;99441.16;;;22.71;26.96
48424;BME280;34232;42.502;26.014;2023-03-26T10:59:54;99434.75;;;22.72;25.72
48424;BME280;34232;42.502;26.014;2023-03-26T11:02:25;99428.25;;;22.86;26.06
48424;BME280;34232;42.502;26.014;2023-03-26T11:04:58;99412.59;;;22.83;26.97
48424;BME280;34232;42.502;26.014;2023-03-26T11:15:13;99399.31;;;22.63;25.69
48424;BME280;34232;42.502;26.014;2023-03-26T11:17:48;99401.28;;;22.50;25.74
48424;BME280;34232;42.502;26.014;2023-03-26T11:22:57;99402.09;;;22.25;24.92
48424;BME280;34232;42.502;26.014;2023-03-26T11:33:20;99403.06;;;22.38;25.39
48424;BME280;34232;42.502;26.014;2023-03-26T11:35:47;99396.38;;;22.47;26.50
48424;BME280;34232;42.502;26.014;2023-03-26T11:40:45;99395.16;;;22.67;24.51
48424;BME280;34232;42.502;26.014;2023-03-26T11:43:14;99394.16;;;22.62;25.42
48424;BME280;34232;42.502;26.014;2023-03-26T11:45:43;99389.97;;;22.48;25.14
48424;BME280;34232;42.502;26.014;2023-03-26T11:48:12;99392.63;;;22.48;25.51
48424;BME280;34232;42.502;26.014;2023-03-26T11:50:53;99382.34;;;22.45;24.61
48424;BME280;34232;42.502;26.014;2023-03-26T11:53:21;99385.94;;;22.57;25.04
48424;BME280;34232;42.502;26.014;2023-03-26T11:55:52;99370.44;;;22.59;24.80
48424;BME280;34232;42.502;26.014;2023-03-26T12:01:15;99386.72;;;22.64;24.86
48424;BME280;34232;42.502;26.014;2023-03-26T12:03:41;99375.69;;;22.54;25.72
48424;BME280;34232;42.502;26.014;2023-03-26T12:06:09;99372.69;;;22.62;24.71
48424;BME280;34232;42.502;26.014;2023-03-26T12:08:39;99368.81;;;22.58;24.88
48424;BME280;34232;42.502;26.014;2023-03-26T12:11:09;99368.66;;;22.53;26.06
48424;BME280;34232;42.502;26.014;2023-03-26T12:13:36;99366.72;;;22.60;24.90
48424;BME280;34232;42.502;26.014;2023-03-26T12:16:07;99355.94;;;22.42;24.73
48424;BME280;34232;42.502;26.014;2023-03-26T12:18:33;99365.94;;;22.34;24.52
48424;BME280;34232;42.502;26.014;2023-03-26T12:21:06;99357.88;;;22.34;23.94
48424;BME280;34232;42.502;26.014;2023-03-26T12:23:36;99351.91;;;22.32;25.27
48424;BME280;34232;42.502;26.014;2023-03-26T12:28:49;99370.72;;;21.94;24.90
48424;BME280;34232;42.502;26.014;2023-03-26T12:31:15;99360.00;;;21.94;24.68
48424;BME280;34232;42.502;26.014;2023-03-26T12:36:29;99342.47;;;21.98;24.27
48424;BME280;34232;42.502;26.014;2023-03-26T12:38:55;99350.03;;;22.08;23.52
48424;BME280;34232;42.502;26.014;2023-03-26T12:41:36;99342.88;;;22.02;23.90
48424;BME280;34232;42.502;26.014;2023-03-26T12:44:13;99340.13;;;22.09;24.33
48424;BME280;34232;42.502;26.014;2023-03-26T12:46:42;99335.16;;;22.12;23.36
48424;BME280;34232;42.502;26.014;2023-03-26T12:49:09;99327.00;;;22.25;23.25
48424;BME280;34232;42.502;26.014;2023-03-26T13:06:48;99310.00;;;22.38;23.34
48424;BME280;34232;42.502;26.014;2023-03-26T13:11:49;99298.44;;;22.38;23.48
48424;BME280;34232;42.502;26.014;2023-03-26T13:19:18;99303.50;;;22.46;21.82
48424;BME280;34232;42.502;26.014;2023-03-26T13:24:32;99300.09;;;22.39;23.29
48424;BME280;34232;42.502;26.014;2023-03-26T13:29:45;99295.00;;;22.30;22.27
48424;BME280;34232;42.502;26.014;2023-03-26T13:32:36;99300.47;;;22.17;22.19
48424;BME280;34232;42.502;26.014;2023-03-26T13:35:17;99292.66;;;22.16;22.44
48424;BME280;34232;42.502;26.014;2023-03-26T13:40:47;99295.44;;;22.27;21.94
48424;BME280;34232;42.502;26.014;2023-03-26T13:46:02;99291.06;;;22.08;22.52
48424;BME280;34232;42.502;26.014;2023-03-26T13:48:49;99288.25;;;22.03;22.28
48424;BME280;34232;42.502;26.014;2023-03-26T13:53:54;99294.00;;;22.07;22.36
48424;BME280;34232;42.502;26.014;2023-03-26T13:56:24;99304.31;;;21.96;22.58
48424;BME280;34232;42.502;26.014;2023-03-26T13:58:56;99293.69;;;21.90;23.46
48424;BME280;34232;42.502;26.014;2023-03-26T14:01:31;99299.03;;;21.90;22.09
48424;BME280;34232;42.502;26.014;2023-03-26T14:06:40;99301.25;;;21.93;23.34
48424;BME280;34232;42.502;26.014;2023-03-26T14:11:59;99304.88;;;21.80;22.50
48424;BME280;34232;42.502;26.014;2023-03-26T14:16:53;99301.97;;;21.82;23.31
48424;BME280;34232;42.502;26.014;2023-03-26T14:22:23;99309.41;;;21.80;22.89
48424;BME280;34232;42.502;26.014;2023-03-26T14:32:49;99295.28;;;21.66;22.60
48424;BME280;34232;42.502;26.014;2023-03-26T14:40:43;99293.59;;;21.72;21.52
48424;BME280;34232;42.502;26.014;2023-03-26T14:45:41;99293.59;;;21.72;23.29
48424;BME280;34232;42.502;26.014;2023-03-26T14:53:37;99295.16;;;21.54;22.95
48424;BME280;34232;42.502;26.014;2023-03-26T14:56:27;99286.50;;;21.52;22.44
48424;BME280;34232;42.502;26.014;2023-03-26T15:01:27;99292.16;;;21.38;22.95
48424;BME280;34232;42.502;26.014;2023-03-26T15:34:33;99284.06;;;20.42;22.30
48424;BME280;34232;42.502;26.014;2023-03-26T15:42:27;99282.84;;;20.44;23.16
48424;BME280;34232;42.502;26.014;2023-03-26T15:49:52;99286.13;;;20.40;22.59
48424;BME280;34232;42.502;26.014;2023-03-26T15:52:26;99288.78;;;20.40;22.99
48424;BME280;34232;42.502;26.014;2023-03-26T15:54:59;99286.91;;;20.34;21.48
48424;BME280;34232;42.502;26.014;2023-03-26T15:57:28;99293.09;;;20.27;20.96
48424;BME280;34232;42.502;26.014;2023-03-26T16:00:00;99300.50;;;20.25;21.37
48424;BME280;34232;42.502;26.014;2023-03-26T16:15:56;99304.19;;;19.72;22.19
48424;BME280;34232;42.502;26.014;2023-03-26T16:26:34;99308.63;;;19.45;22.32
48424;BME280;34232;42.502;26.014;2023-03-26T16:31:26;99304.91;;;19.39;22.75
48424;BME280;34232;42.502;26.014;2023-03-26T16:36:30;99309.41;;;19.32;23.44
48424;BME280;34232;42.502;26.014;2023-03-26T16:41:29;99304.22;;;19.17;23.08
48424;BME280;34232;42.502;26.014;2023-03-26T17:01:55;99324.16;;;18.46;24.49
48424;BME280;34232;42.502;26.014;2023-03-26T17:04:26;99324.91;;;18.33;24.33
48424;BME280;34232;42.502;26.014;2023-03-26T17:27:46;99376.56;;;17.90;26.59
48424;BME280;34232;42.502;26.014;2023-03-26T17:30:37;99382.94;;;17.74;27.00
48424;BME280;34232;42.502;26.014;2023-03-26T17:33:26;99381.88;;;17.54;27.62
48424;BME280;34232;42.502;26.014;2023-03-26T17:41:01;99395.78;;;17.05;29.50
48424;BME280;34232;42.502;26.014;2023-03-26T17:43:48;99393.53;;;17.02;29.28
48424;BME280;34232;42.502;26.014;2023-03-26T17:46:33;99391.28;;;16.91;28.44
48424;BME280;34232;42.502;26.014;2023-03-26T17:49:03;99385.59;;;16.64;28.30
48424;BME280;34232;42.502;26.014;2023-03-26T17:51:50;99399.91;;;16.63;28.99
48424;BME280;34232;42.502;26.014;2023-03-26T17:56:41;99395.28;;;16.57;29.68
48424;BME280;34232;42.502;26.014;2023-03-26T17:59:07;99396.00;;;16.51;29.99
48424;BME280;34232;42.502;26.014;2023-03-26T18:01:41;99408.19;;;16.45;29.66
48424;BME280;34232;42.502;26.014;2023-03-26T18:04:16;99412.16;;;16.27;30.84
48424;BME280;34232;42.502;26.014;2023-03-26T18:12:01;99419.03;;;16.21;29.56
48424;BME280;34232;42.502;26.014;2023-03-26T18:16:56;99424.97;;;16.23;29.45
48424;BME280;34232;42.502;26.014;2023-03-26T18:19:22;99426.84;;;16.15;30.30
48424;BME280;34232;42.502;26.014;2023-03-26T18:21:52;99429.94;;;16.03;31.38
48424;BME280;34232;42.502;26.014;2023-03-26T18:24:39;99430.41;;;16.07;31.16
48424;BME280;34232;42.502;26.014;2023-03-26T18:27:04;99420.69;;;15.91;31.61
48424;BME280;34232;42.502;26.014;2023-03-26T18:29:31;99427.50;;;15.71;32.54
48424;BME280;34232;42.502;26.014;2023-03-26T18:32:00;99425.34;;;15.66;31.69
48424;BME280;34232;42.502;26.014;2023-03-26T18:34:32;99423.84;;;15.72;32.11
48424;BME280;34232;42.502;26.014;2023-03-26T18:39:29;99422.56;;;15.60;30.96
48424;BME280;34232;42.502;26.014;2023-03-26T18:41:54;99427.53;;;15.55;30.24
48424;BME280;34232;42.502;26.014;2023-03-26T18:44:20;99428.50;;;15.62;30.56
48424;BME280;34232;42.502;26.014;2023-03-26T18:46:45;99424.00;;;15.70;30.17
48424;BME280;34232;42.502;26.014;2023-03-26T18:49:11;99427.19;;;15.66;31.36
48424;BME280;34232;42.502;26.014;2023-03-26T18:51:37;99439.28;;;15.68;31.20
48424;BME280;34232;42.502;26.014;2023-03-26T18:54:02;99435.44;;;15.71;31.08
48424;BME280;34232;42.502;26.014;2023-03-26T18:58:57;99430.38;;;15.84;31.55
48424;BME280;34232;42.502;26.014;2023-03-26T19:01:23;99434.63;;;15.93;31.72
48424;BME280;34232;42.502;26.014;2023-03-26T19:03:49;99435.47;;;15.94;31.96
48424;BME280;34232;42.502;26.014;2023-03-26T19:06:16;99423.28;;;15.77;32.01
48424;BME280;34232;42.502;26.014;2023-03-26T19:08:42;99430.59;;;15.35;32.88
48424;BME280;34232;42.502;26.014;2023-03-26T19:11:09;99432.25;;;15.36;33.18
48424;BME280;34232;42.502;26.014;2023-03-26T19:13:36;99437.34;;;15.07;33.68
48424;BME280;34232;42.502;26.014;2023-03-26T19:16:03;99432.41;;;14.88;33.91
48424;BME280;34232;42.502;26.014;2023-03-26T19:18:34;99429.28;;;14.92;32.87
48424;BME280;34232;42.502;26.014;2023-03-26T19:21:00;99423.47;;;14.89;33.08
48424;BME280;34232;42.502;26.014;2023-03-26T19:23:34;99422.44;;;15.06;33.45
48424;BME280;34232;42.502;26.014;2023-03-26T19:26:04;99425.38;;;15.19;33.02
48424;BME280;34232;42.502;26.014;2023-03-26T19:28:31;99414.66;;;14.96;32.29